sensor_id;sensor_type;location;lat;lon;timestamp;P1;durP1;ratioP1;P2;durP2;ratioP2
62951;SDS011;52163;52.212;-1.002;2022-12-07T00:00:48;16.70;;;8.40;;
62951;SDS011;52163;52.212;-1.002;2022-12-07T00:03:14;16.70;;;7.80;;
62951;SDS011;52163;52.212;-1.002;2022-12-07T00:05:41;15.70;;;8.70;;
62951;SDS011;52163;52.212;-1.002;2022-12-07T00:08:06;15.70;;;8.70;;
62951;SDS011;52163;52.212;-1.002;2022-12-07T00:10:33;22.50;;;11.60;;
62951;SDS011;52163;52.212;-1.002;2022-12-07T00:12:59;17.10;;;10.10;;
62951;SDS011;52163;52.212;-1.002;2022-12-07T00:15:24;15.40;;;9.00;;
62951;SDS011;52163;52.212;-1.002;2022-12-07T00:17:50;12.20;;;7.80;;
62951;SDS011;52163;52.212;-1.002;2022-12-07T00:20:15;13.00;;;7.70;;
62951;SDS011;52163;52.212;-1.002;2022-12-07T00:22:41;16.10;;;8.20;;
62951;SDS011;52163;52.212;-1.002;2022-12-07T00:25:06;15.80;;;8.30;;
62951;SDS011;52163;52.212;-1.002;2022-12-07T00:27:32;19.10;;;10.10;;
62951;SDS011;52163;52.212;-1.002;2022-12-07T00:29:58;20.40;;;10.70;;
62951;SDS011;52163;52.212;-1.002;2022-12-07T00:32:23;15.40;;;8.80;;
62951;SDS011;52163;52.212;-1.002;2022-12-07T00:34:48;15.40;;;8.70;;
62951;SDS011;52163;52.212;-1.002;2022-12-07T00:37:14;20.70;;;8.60;;
62951;SDS011;52163;52.212;-1.002;2022-12-07T00:39:39;16.20;;;8.60;;
62951;SDS011;52163;52.212;-1.002;2022-12-07T00:42:04;13.90;;;7.20;;
62951;SDS011;52163;52.212;-1.002;2022-12-07T00:44:30;19.10;;;9.90;;
62951;SDS011;52163;52.212;-1.002;2022-12-07T00:46:55;19.10;;;11.00;;
62951;SDS011;52163;52.212;-1.002;2022-12-07T00:49:21;19.10;;;10.70;;
62951;SDS011;52163;52.212;-1.002;2022-12-07T00:51:48;16.50;;;9.40;;
62951;SDS011;52163;52.212;-1.002;2022-12-07T00:54:14;15.50;;;8.00;;
62951;SDS011;52163;52.212;-1.002;2022-12-07T00:56:40;13.90;;;7.80;;
62951;SDS011;52163;52.212;-1.002;2022-12-07T00:59:05;13.50;;;7.90;;
62951;SDS011;52163;52.212;-1.002;2022-12-07T01:01:32;16.10;;;7.80;;
62951;SDS011;52163;52.212;-1.002;2022-12-07T01:04:00;16.30;;;10.30;;
62951;SDS011;52163;52.212;-1.002;2022-12-07T01:06:26;25.10;;;12.30;;
62951;SDS011;52163;52.212;-1.002;2022-12-07T01:08:52;21.30;;;11.20;;
62951;SDS011;52163;52.212;-1.002;2022-12-07T01:11:19;13.40;;;8.50;;
62951;SDS011;52163;52.212;-1.002;2022-12-07T01:13:49;18.50;;;8.80;;
62951;SDS011;52163;52.212;-1.002;2022-12-07T01:16:16;14.00;;;8.40;;
62951;SDS011;52163;52.212;-1.002;2022-12-07T01:18:42;13.80;;;8.20;;
62951;SDS011;52163;52.212;-1.002;2022-12-07T01:21:11;16.10;;;7.20;;
62951;SDS011;52163;52.212;-1.002;2022-12-07T01:23:40;20.50;;;9.80;;
62951;SDS011;52163;52.212;-1.002;2022-12-07T01:26:06;22.10;;;11.20;;
62951;SDS011;52163;52.212;-1.002;2022-12-07T01:28:34;23.70;;;12.50;;
62951;SDS011;52163;52.212;-1.002;2022-12-07T01:31:07;16.50;;;9.10;;
62951;SDS011;52163;52.212;-1.002;2022-12-07T01:33:40;14.80;;;9.10;;
62951;SDS011;52163;52.212;-1.002;2022-12-07T01:38:46;15.80;;;8.70;;
62951;SDS011;52163;52.212;-1.002;2022-12-07T01:41:13;25.70;;;9.80;;
62951;SDS011;52163;52.212;-1.002;2022-12-07T01:46:43;22.20;;;10.70;;
62951;SDS011;52163;52.212;-1.002;2022-12-07T01:49:21;15.50;;;8.60;;
62951;SDS011;52163;52.212;-1.002;2022-12-07T01:52:07;17.40;;;8.00;;
62951;SDS011;52163;52.212;-1.002;2022-12-07T01:54:39;16.00;;;7.70;;
62951;SDS011;52163;52.212;-1.002;2022-12-07T01:57:06;19.10;;;7.70;;
62951;SDS011;52163;52.212;-1.002;2022-12-07T01:59:34;20.10;;;9.80;;
62951;SDS011;52163;52.212;-1.002;2022-12-07T02:02:00;19.60;;;10.80;;
62951;SDS011;52163;52.212;-1.002;2022-12-07T02:04:29;22.30;;;11.40;;
62951;SDS011;52163;52.212;-1.002;2022-12-07T02:06:55;13.70;;;8.40;;
62951;SDS011;52163;52.212;-1.002;2022-12-07T02:09:22;14.10;;;8.20;;
62951;SDS011;52163;52.212;-1.002;2022-12-07T02:11:48;14.40;;;8.50;;
62951;SDS011;52163;52.212;-1.002;2022-12-07T02:14:15;16.30;;;7.80;;
62951;SDS011;52163;52.212;-1.002;2022-12-07T02:16:44;15.00;;;8.30;;
62951;SDS011;52163;52.212;-1.002;2022-12-07T02:30:17;12.10;;;8.00;;
62951;SDS011;52163;52.212;-1.002;2022-12-07T02:43:27;11.10;;;7.70;;
62951;SDS011;52163;52.212;-1.002;2022-12-07T02:45:57;15.60;;;7.30;;
62951;SDS011;52163;52.212;-1.002;2022-12-07T02:48:28;10.50;;;7.20;;
62951;SDS011;52163;52.212;-1.002;2022-12-07T02:50:55;14.20;;;6.90;;
62951;SDS011;52163;52.212;-1.002;2022-12-07T02:53:34;18.00;;;10.80;;
62951;SDS011;52163;52.212;-1.002;2022-12-07T03:12:45;15.30;;;9.40;;
62951;SDS011;52163;52.212;-1.002;2022-12-07T03:15:32;20.30;;;11.10;;
62951;SDS011;52163;52.212;-1.002;2022-12-07T03:18:04;24.50;;;11.10;;
62951;SDS011;52163;52.212;-1.002;2022-12-07T03:20:32;11.60;;;7.30;;
62951;SDS011;52163;52.212;-1.002;2022-12-07T03:23:00;17.30;;;7.90;;
62951;SDS011;52163;52.212;-1.002;2022-12-07T03:25:29;12.10;;;7.10;;
62951;SDS011;52163;52.212;-1.002;2022-12-07T03:27:56;12.30;;;7.10;;
62951;SDS011;52163;52.212;-1.002;2022-12-07T03:30:59;21.00;;;10.00;;
62951;SDS011;52163;52.212;-1.002;2022-12-07T03:33:25;21.60;;;11.00;;
62951;SDS011;52163;52.212;-1.002;2022-12-07T03:36:00;15.00;;;8.10;;
62951;SDS011;52163;52.212;-1.002;2022-12-07T03:38:38;15.10;;;7.70;;
62951;SDS011;52163;52.212;-1.002;2022-12-07T03:41:18;17.20;;;8.30;;
62951;SDS011;52163;52.212;-1.002;2022-12-07T03:43:49;14.60;;;8.70;;
62951;SDS011;52163;52.212;-1.002;2022-12-07T03:48:53;20.50;;;10.00;;
62951;SDS011;52163;52.212;-1.002;2022-12-07T03:51:47;12.30;;;7.20;;
62951;SDS011;52163;52.212;-1.002;2022-12-07T03:54:33;19.40;;;8.00;;
62951;SDS011;52163;52.212;-1.002;2022-12-07T03:57:04;13.10;;;8.20;;
62951;SDS011;52163;52.212;-1.002;2022-12-07T03:59:33;15.20;;;7.00;;
62951;SDS011;52163;52.212;-1.002;2022-12-07T04:02:03;15.90;;;9.10;;
62951;SDS011;52163;52.212;-1.002;2022-12-07T04:04:29;19.80;;;10.20;;
62951;SDS011;52163;52.212;-1.002;2022-12-07T04:06:55;16.40;;;9.90;;
62951;SDS011;52163;52.212;-1.002;2022-12-07T04:09:21;18.70;;;9.70;;
62951;SDS011;52163;52.212;-1.002;2022-12-07T04:11:46;12.10;;;7.00;;
62951;SDS011;52163;52.212;-1.002;2022-12-07T04:14:12;16.40;;;7.60;;
62951;SDS011;52163;52.212;-1.002;2022-12-07T04:16:54;13.10;;;8.10;;
62951;SDS011;52163;52.212;-1.002;2022-12-07T04:19:25;17.50;;;8.20;;
62951;SDS011;52163;52.212;-1.002;2022-12-07T04:21:52;14.10;;;8.90;;
62951;SDS011;52163;52.212;-1.002;2022-12-07T04:24:18;19.90;;;10.20;;
62951;SDS011;52163;52.212;-1.002;2022-12-07T04:26:45;19.90;;;10.80;;
62951;SDS011;52163;52.212;-1.002;2022-12-07T04:29:11;14.20;;;8.60;;
62951;SDS011;52163;52.212;-1.002;2022-12-07T04:31:37;11.50;;;7.00;;
62951;SDS011;52163;52.212;-1.002;2022-12-07T04:34:03;16.00;;;7.90;;
62951;SDS011;52163;52.212;-1.002;2022-12-07T04:36:29;13.60;;;7.60;;
62951;SDS011;52163;52.212;-1.002;2022-12-07T04:38:55;13.10;;;6.60;;
62951;SDS011;52163;52.212;-1.002;2022-12-07T04:41:21;15.60;;;10.10;;
62951;SDS011;52163;52.212;-1.002;2022-12-07T04:43:55;18.40;;;10.10;;
62951;SDS011;52163;52.212;-1.002;2022-12-07T04:46:26;21.90;;;10.50;;
62951;SDS011;52163;52.212;-1.002;2022-12-07T04:48:53;11.30;;;6.80;;
62951;SDS011;52163;52.212;-1.002;2022-12-07T04:51:20;15.80;;;7.90;;
62951;SDS011;52163;52.212;-1.002;2022-12-07T04:53:55;16.90;;;7.60;;
62951;SDS011;52163;52.212;-1.002;2022-12-07T04:56:21;12.70;;;7.50;;
62951;SDS011;52163;52.212;-1.002;2022-12-07T04:58:48;13.10;;;7.90;;
62951;SDS011;52163;52.212;-1.002;2022-12-07T05:01:15;20.00;;;9.70;;
62951;SDS011;52163;52.212;-1.002;2022-12-07T05:03:42;20.30;;;11.80;;
62951;SDS011;52163;52.212;-1.002;2022-12-07T05:06:09;22.50;;;11.70;;
62951;SDS011;52163;52.212;-1.002;2022-12-07T05:08:35;14.80;;;8.40;;
62951;SDS011;52163;52.212;-1.002;2022-12-07T05:11:01;12.40;;;7.40;;
62951;SDS011;52163;52.212;-1.002;2022-12-07T05:13:28;12.90;;;7.40;;
62951;SDS011;52163;52.212;-1.002;2022-12-07T05:15:53;16.60;;;8.00;;
62951;SDS011;52163;52.212;-1.002;2022-12-07T05:18:19;12.40;;;7.50;;
62951;SDS011;52163;52.212;-1.002;2022-12-07T05:20:44;15.10;;;7.60;;
62951;SDS011;52163;52.212;-1.002;2022-12-07T05:23:10;14.00;;;7.60;;
62951;SDS011;52163;52.212;-1.002;2022-12-07T05:25:36;19.80;;;10.10;;
62951;SDS011;52163;52.212;-1.002;2022-12-07T05:28:02;33.40;;;12.00;;
62951;SDS011;52163;52.212;-1.002;2022-12-07T05:30:28;27.50;;;12.60;;
62951;SDS011;52163;52.212;-1.002;2022-12-07T05:32:53;23.10;;;12.30;;
62951;SDS011;52163;52.212;-1.002;2022-12-07T05:35:19;15.90;;;8.80;;
62951;SDS011;52163;52.212;-1.002;2022-12-07T05:37:44;12.70;;;8.10;;
62951;SDS011;52163;52.212;-1.002;2022-12-07T05:40:11;17.80;;;8.80;;
62951;SDS011;52163;52.212;-1.002;2022-12-07T05:42:38;15.80;;;9.20;;
62951;SDS011;52163;52.212;-1.002;2022-12-07T05:45:04;13.40;;;7.60;;
62951;SDS011;52163;52.212;-1.002;2022-12-07T05:47:31;16.80;;;7.90;;
62951;SDS011;52163;52.212;-1.002;2022-12-07T05:49:56;11.90;;;6.70;;
62951;SDS011;52163;52.212;-1.002;2022-12-07T05:52:22;21.90;;;11.20;;
62951;SDS011;52163;52.212;-1.002;2022-12-07T05:54:47;27.60;;;13.90;;
62951;SDS011;52163;52.212;-1.002;2022-12-07T05:57:13;25.90;;;11.60;;
62951;SDS011;52163;52.212;-1.002;2022-12-07T05:59:38;26.20;;;12.00;;
62951;SDS011;52163;52.212;-1.002;2022-12-07T06:02:05;14.80;;;8.60;;
62951;SDS011;52163;52.212;-1.002;2022-12-07T06:04:33;17.30;;;9.00;;
62951;SDS011;52163;52.212;-1.002;2022-12-07T06:07:01;17.80;;;9.40;;
62951;SDS011;52163;52.212;-1.002;2022-12-07T06:09:27;16.00;;;8.80;;
62951;SDS011;52163;52.212;-1.002;2022-12-07T06:11:53;16.80;;;8.80;;
62951;SDS011;52163;52.212;-1.002;2022-12-07T06:14:38;20.40;;;10.60;;
62951;SDS011;52163;52.212;-1.002;2022-12-07T06:17:04;30.70;;;13.40;;
62951;SDS011;52163;52.212;-1.002;2022-12-07T06:19:30;24.60;;;13.20;;
62951;SDS011;52163;52.212;-1.002;2022-12-07T06:21:56;20.10;;;12.20;;
62951;SDS011;52163;52.212;-1.002;2022-12-07T06:24:21;17.30;;;8.80;;
62951;SDS011;52163;52.212;-1.002;2022-12-07T06:26:47;18.20;;;9.30;;
62951;SDS011;52163;52.212;-1.002;2022-12-07T06:29:13;17.00;;;10.10;;
62951;SDS011;52163;52.212;-1.002;2022-12-07T06:31:40;18.50;;;9.00;;
62951;SDS011;52163;52.212;-1.002;2022-12-07T06:34:09;17.50;;;10.20;;
62951;SDS011;52163;52.212;-1.002;2022-12-07T06:36:36;28.50;;;12.40;;
62951;SDS011;52163;52.212;-1.002;2022-12-07T06:39:02;27.40;;;14.10;;
62951;SDS011;52163;52.212;-1.002;2022-12-07T06:41:29;19.60;;;9.80;;
62951;SDS011;52163;52.212;-1.002;2022-12-07T06:43:54;17.50;;;8.40;;
62951;SDS011;52163;52.212;-1.002;2022-12-07T06:46:20;16.40;;;9.60;;
62951;SDS011;52163;52.212;-1.002;2022-12-07T06:48:45;18.20;;;9.20;;
62951;SDS011;52163;52.212;-1.002;2022-12-07T06:51:11;15.60;;;8.40;;
62951;SDS011;52163;52.212;-1.002;2022-12-07T06:53:36;21.60;;;11.60;;
62951;SDS011;52163;52.212;-1.002;2022-12-07T06:56:03;25.30;;;13.80;;
62951;SDS011;52163;52.212;-1.002;2022-12-07T06:58:29;24.90;;;13.40;;
62951;SDS011;52163;52.212;-1.002;2022-12-07T07:00:55;17.40;;;8.90;;
62951;SDS011;52163;52.212;-1.002;2022-12-07T07:03:20;15.60;;;9.00;;
62951;SDS011;52163;52.212;-1.002;2022-12-07T07:05:46;15.10;;;9.30;;
62951;SDS011;52163;52.212;-1.002;2022-12-07T07:08:12;15.30;;;8.50;;
62951;SDS011;52163;52.212;-1.002;2022-12-07T07:10:38;19.00;;;9.10;;
62951;SDS011;52163;52.212;-1.002;2022-12-07T07:13:03;16.40;;;8.70;;
62951;SDS011;52163;52.212;-1.002;2022-12-07T07:15:29;25.10;;;11.90;;
62951;SDS011;52163;52.212;-1.002;2022-12-07T07:17:55;36.50;;;14.60;;
62951;SDS011;52163;52.212;-1.002;2022-12-07T07:20:20;30.80;;;14.60;;
62951;SDS011;52163;52.212;-1.002;2022-12-07T07:22:47;21.40;;;10.10;;
62951;SDS011;52163;52.212;-1.002;2022-12-07T07:25:13;15.50;;;9.60;;
62951;SDS011;52163;52.212;-1.002;2022-12-07T07:27:40;16.40;;;9.30;;
62951;SDS011;52163;52.212;-1.002;2022-12-07T07:30:06;19.20;;;10.10;;
62951;SDS011;52163;52.212;-1.002;2022-12-07T07:32:33;16.90;;;9.00;;
62951;SDS011;52163;52.212;-1.002;2022-12-07T07:34:58;18.20;;;9.40;;
62951;SDS011;52163;52.212;-1.002;2022-12-07T07:37:24;16.60;;;8.80;;
62951;SDS011;52163;52.212;-1.002;2022-12-07T07:39:49;23.50;;;10.10;;
62951;SDS011;52163;52.212;-1.002;2022-12-07T07:42:15;31.00;;;13.70;;
62951;SDS011;52163;52.212;-1.002;2022-12-07T07:44:40;30.00;;;15.80;;
62951;SDS011;52163;52.212;-1.002;2022-12-07T07:47:06;37.00;;;16.50;;
62951;SDS011;52163;52.212;-1.002;2022-12-07T07:49:31;25.40;;;14.10;;
62951;SDS011;52163;52.212;-1.002;2022-12-07T07:51:57;20.80;;;10.90;;
62951;SDS011;52163;52.212;-1.002;2022-12-07T07:54:22;14.70;;;8.30;;
62951;SDS011;52163;52.212;-1.002;2022-12-07T07:56:47;17.20;;;7.70;;
62951;SDS011;52163;52.212;-1.002;2022-12-07T07:59:14;14.70;;;9.10;;
62951;SDS011;52163;52.212;-1.002;2022-12-07T08:01:40;15.60;;;7.90;;
62951;SDS011;52163;52.212;-1.002;2022-12-07T08:04:05;18.30;;;10.00;;
62951;SDS011;52163;52.212;-1.002;2022-12-07T08:06:31;29.00;;;13.30;;
62951;SDS011;52163;52.212;-1.002;2022-12-07T08:08:56;29.20;;;13.10;;
62951;SDS011;52163;52.212;-1.002;2022-12-07T08:11:23;24.30;;;10.70;;
62951;SDS011;52163;52.212;-1.002;2022-12-07T08:13:49;16.10;;;8.90;;
62951;SDS011;52163;52.212;-1.002;2022-12-07T08:16:14;17.80;;;9.80;;
62951;SDS011;52163;52.212;-1.002;2022-12-07T08:18:40;18.30;;;10.00;;
62951;SDS011;52163;52.212;-1.002;2022-12-07T08:21:08;17.20;;;9.60;;
62951;SDS011;52163;52.212;-1.002;2022-12-07T08:23:36;16.00;;;9.00;;
62951;SDS011;52163;52.212;-1.002;2022-12-07T08:26:06;15.20;;;7.30;;
62951;SDS011;52163;52.212;-1.002;2022-12-07T08:28:33;21.60;;;9.60;;
62951;SDS011;52163;52.212;-1.002;2022-12-07T08:31:03;28.00;;;13.10;;
62951;SDS011;52163;52.212;-1.002;2022-12-07T08:33:31;27.70;;;13.10;;
62951;SDS011;52163;52.212;-1.002;2022-12-07T08:36:07;23.70;;;12.20;;
62951;SDS011;52163;52.212;-1.002;2022-12-07T08:38:34;16.50;;;8.00;;
62951;SDS011;52163;52.212;-1.002;2022-12-07T08:41:01;14.60;;;7.70;;
62951;SDS011;52163;52.212;-1.002;2022-12-07T08:43:27;18.10;;;8.60;;
62951;SDS011;52163;52.212;-1.002;2022-12-07T08:46:15;13.80;;;7.90;;
62951;SDS011;52163;52.212;-1.002;2022-12-07T08:48:50;17.50;;;8.70;;
62951;SDS011;52163;52.212;-1.002;2022-12-07T08:51:19;20.90;;;10.10;;
62951;SDS011;52163;52.212;-1.002;2022-12-07T08:53:47;26.50;;;12.70;;
62951;SDS011;52163;52.212;-1.002;2022-12-07T08:56:14;22.00;;;11.20;;
62951;SDS011;52163;52.212;-1.002;2022-12-07T08:58:39;19.90;;;8.20;;
62951;SDS011;52163;52.212;-1.002;2022-12-07T09:01:06;17.60;;;8.20;;
62951;SDS011;52163;52.212;-1.002;2022-12-07T09:03:31;19.80;;;9.70;;
62951;SDS011;52163;52.212;-1.002;2022-12-07T09:05:57;15.10;;;7.60;;
62951;SDS011;52163;52.212;-1.002;2022-12-07T09:08:25;16.40;;;6.80;;
62951;SDS011;52163;52.212;-1.002;2022-12-07T09:10:54;15.80;;;8.50;;
62951;SDS011;52163;52.212;-1.002;2022-12-07T09:13:19;22.10;;;9.70;;
62951;SDS011;52163;52.212;-1.002;2022-12-07T09:15:45;21.10;;;10.30;;
62951;SDS011;52163;52.212;-1.002;2022-12-07T09:18:10;13.80;;;7.40;;
62951;SDS011;52163;52.212;-1.002;2022-12-07T09:20:35;13.50;;;7.00;;
62951;SDS011;52163;52.212;-1.002;2022-12-07T09:23:01;12.10;;;6.60;;
62951;SDS011;52163;52.212;-1.002;2022-12-07T09:25:26;16.40;;;7.70;;
62951;SDS011;52163;52.212;-1.002;2022-12-07T09:27:55;14.30;;;7.60;;
62951;SDS011;52163;52.212;-1.002;2022-12-07T09:30:22;14.20;;;7.90;;
62951;SDS011;52163;52.212;-1.002;2022-12-07T09:32:47;21.80;;;11.00;;
62951;SDS011;52163;52.212;-1.002;2022-12-07T09:35:13;18.80;;;10.60;;
62951;SDS011;52163;52.212;-1.002;2022-12-07T09:37:38;15.80;;;8.80;;
62951;SDS011;52163;52.212;-1.002;2022-12-07T09:40:04;17.30;;;7.40;;
62951;SDS011;52163;52.212;-1.002;2022-12-07T09:42:37;12.90;;;7.00;;
62951;SDS011;52163;52.212;-1.002;2022-12-07T09:45:05;14.50;;;8.00;;
62951;SDS011;52163;52.212;-1.002;2022-12-07T09:47:37;15.50;;;7.20;;
62951;SDS011;52163;52.212;-1.002;2022-12-07T09:50:13;11.70;;;6.70;;
62951;SDS011;52163;52.212;-1.002;2022-12-07T09:52:40;16.40;;;8.40;;
62951;SDS011;52163;52.212;-1.002;2022-12-07T09:55:27;16.10;;;9.10;;
62951;SDS011;52163;52.212;-1.002;2022-12-07T09:57:54;18.60;;;9.70;;
62951;SDS011;52163;52.212;-1.002;2022-12-07T10:00:21;14.40;;;6.70;;
62951;SDS011;52163;52.212;-1.002;2022-12-07T10:02:58;12.60;;;6.10;;
62951;SDS011;52163;52.212;-1.002;2022-12-07T10:08:05;11.50;;;5.90;;
62951;SDS011;52163;52.212;-1.002;2022-12-07T10:10:31;12.10;;;5.80;;
62951;SDS011;52163;52.212;-1.002;2022-12-07T10:12:59;11.50;;;7.10;;
62951;SDS011;52163;52.212;-1.002;2022-12-07T10:15:46;24.30;;;8.60;;
62951;SDS011;52163;52.212;-1.002;2022-12-07T10:18:33;12.10;;;6.40;;
62951;SDS011;52163;52.212;-1.002;2022-12-07T10:26:38;12.10;;;5.70;;
62951;SDS011;52163;52.212;-1.002;2022-12-07T10:29:15;10.80;;;5.00;;
62951;SDS011;52163;52.212;-1.002;2022-12-07T10:31:43;13.40;;;6.00;;
62951;SDS011;52163;52.212;-1.002;2022-12-07T10:34:24;13.30;;;6.50;;
62951;SDS011;52163;52.212;-1.002;2022-12-07T10:36:52;12.00;;;5.90;;
62951;SDS011;52163;52.212;-1.002;2022-12-07T10:39:21;10.30;;;5.50;;
62951;SDS011;52163;52.212;-1.002;2022-12-07T10:41:58;10.60;;;5.70;;
62951;SDS011;52163;52.212;-1.002;2022-12-07T10:44:27;11.10;;;5.40;;
62951;SDS011;52163;52.212;-1.002;2022-12-07T10:54:43;9.40;;;5.20;;
62951;SDS011;52163;52.212;-1.002;2022-12-07T10:57:24;12.20;;;4.80;;
62951;SDS011;52163;52.212;-1.002;2022-12-07T11:05:39;6.50;;;4.40;;
62951;SDS011;52163;52.212;-1.002;2022-12-07T11:08:18;13.70;;;5.20;;
62951;SDS011;52163;52.212;-1.002;2022-12-07T11:17:03;10.40;;;5.00;;
62951;SDS011;52163;52.212;-1.002;2022-12-07T11:22:18;10.70;;;5.00;;
62951;SDS011;52163;52.212;-1.002;2022-12-07T11:24:56;13.30;;;5.30;;
62951;SDS011;52163;52.212;-1.002;2022-12-07T11:30:11;8.70;;;4.40;;
62951;SDS011;52163;52.212;-1.002;2022-12-07T11:33:08;9.30;;;4.80;;
62951;SDS011;52163;52.212;-1.002;2022-12-07T11:38:44;12.20;;;5.50;;
62951;SDS011;52163;52.212;-1.002;2022-12-07T11:41:16;10.70;;;5.20;;
62951;SDS011;52163;52.212;-1.002;2022-12-07T11:43:54;9.50;;;5.90;;
62951;SDS011;52163;52.212;-1.002;2022-12-07T11:46:28;12.00;;;5.30;;
62951;SDS011;52163;52.212;-1.002;2022-12-07T11:49:10;14.00;;;5.30;;
62951;SDS011;52163;52.212;-1.002;2022-12-07T11:51:44;9.00;;;5.80;;
62951;SDS011;52163;52.212;-1.002;2022-12-07T11:54:15;9.00;;;6.10;;
62951;SDS011;52163;52.212;-1.002;2022-12-07T11:56:46;9.00;;;5.60;;
62951;SDS011;52163;52.212;-1.002;2022-12-07T11:59:38;10.90;;;5.90;;
62951;SDS011;52163;52.212;-1.002;2022-12-07T12:04:55;9.20;;;5.70;;
62951;SDS011;52163;52.212;-1.002;2022-12-07T12:07:32;9.30;;;4.80;;
62951;SDS011;52163;52.212;-1.002;2022-12-07T12:21:33;11.10;;;5.90;;
62951;SDS011;52163;52.212;-1.002;2022-12-07T12:24:02;7.90;;;4.90;;
62951;SDS011;52163;52.212;-1.002;2022-12-07T12:26:51;12.40;;;4.70;;
62951;SDS011;52163;52.212;-1.002;2022-12-07T12:33:01;8.40;;;4.10;;
62951;SDS011;52163;52.212;-1.002;2022-12-07T12:40:45;8.80;;;5.40;;
62951;SDS011;52163;52.212;-1.002;2022-12-07T12:54:57;8.90;;;4.00;;
62951;SDS011;52163;52.212;-1.002;2022-12-07T13:00:00;7.80;;;4.10;;
62951;SDS011;52163;52.212;-1.002;2022-12-07T13:02:50;7.80;;;4.70;;
62951;SDS011;52163;52.212;-1.002;2022-12-07T13:05:22;7.40;;;3.80;;
62951;SDS011;52163;52.212;-1.002;2022-12-07T13:07:58;8.20;;;4.40;;
62951;SDS011;52163;52.212;-1.002;2022-12-07T13:13:04;13.10;;;4.90;;
62951;SDS011;52163;52.212;-1.002;2022-12-07T13:23:29;8.90;;;3.90;;
62951;SDS011;52163;52.212;-1.002;2022-12-07T13:28:42;10.20;;;4.50;;
62951;SDS011;52163;52.212;-1.002;2022-12-07T13:31:19;10.30;;;4.90;;
62951;SDS011;52163;52.212;-1.002;2022-12-07T13:34:27;10.80;;;4.40;;
62951;SDS011;52163;52.212;-1.002;2022-12-07T13:37:01;8.20;;;4.70;;
62951;SDS011;52163;52.212;-1.002;2022-12-07T13:39:34;7.50;;;3.90;;
62951;SDS011;52163;52.212;-1.002;2022-12-07T13:42:06;8.60;;;4.40;;
62951;SDS011;52163;52.212;-1.002;2022-12-07T13:44:40;5.90;;;3.80;;
62951;SDS011;52163;52.212;-1.002;2022-12-07T13:47:09;10.60;;;4.10;;
62951;SDS011;52163;52.212;-1.002;2022-12-07T13:49:51;5.40;;;3.30;;
62951;SDS011;52163;52.212;-1.002;2022-12-07T13:55:05;9.10;;;4.00;;
62951;SDS011;52163;52.212;-1.002;2022-12-07T13:57:39;9.30;;;4.70;;
62951;SDS011;52163;52.212;-1.002;2022-12-07T14:00:13;8.70;;;4.60;;
62951;SDS011;52163;52.212;-1.002;2022-12-07T14:03:00;8.90;;;3.70;;
62951;SDS011;52163;52.212;-1.002;2022-12-07T14:05:33;8.40;;;4.20;;
62951;SDS011;52163;52.212;-1.002;2022-12-07T14:08:01;9.10;;;4.20;;
62951;SDS011;52163;52.212;-1.002;2022-12-07T14:16:00;6.30;;;3.70;;
62951;SDS011;52163;52.212;-1.002;2022-12-07T14:18:36;7.20;;;3.60;;
62951;SDS011;52163;52.212;-1.002;2022-12-07T14:21:22;6.80;;;3.00;;
62951;SDS011;52163;52.212;-1.002;2022-12-07T14:24:02;6.10;;;2.70;;
62951;SDS011;52163;52.212;-1.002;2022-12-07T14:26:32;9.80;;;3.00;;
62951;SDS011;52163;52.212;-1.002;2022-12-07T14:31:59;5.10;;;2.70;;
62951;SDS011;52163;52.212;-1.002;2022-12-07T14:34:52;5.90;;;2.50;;
62951;SDS011;52163;52.212;-1.002;2022-12-07T14:37:22;6.90;;;2.50;;
62951;SDS011;52163;52.212;-1.002;2022-12-07T14:39:47;7.60;;;2.70;;
62951;SDS011;52163;52.212;-1.002;2022-12-07T14:42:13;5.60;;;2.20;;
62951;SDS011;52163;52.212;-1.002;2022-12-07T14:44:38;8.50;;;2.70;;
62951;SDS011;52163;52.212;-1.002;2022-12-07T14:47:04;8.90;;;2.60;;
62951;SDS011;52163;52.212;-1.002;2022-12-07T14:49:29;4.40;;;2.20;;
62951;SDS011;52163;52.212;-1.002;2022-12-07T14:51:54;5.80;;;2.00;;
62951;SDS011;52163;52.212;-1.002;2022-12-07T14:54:20;4.10;;;2.40;;
62951;SDS011;52163;52.212;-1.002;2022-12-07T14:56:51;5.50;;;2.70;;
62951;SDS011;52163;52.212;-1.002;2022-12-07T14:59:17;4.40;;;2.00;;
62951;SDS011;52163;52.212;-1.002;2022-12-07T15:01:43;8.00;;;2.40;;
62951;SDS011;52163;52.212;-1.002;2022-12-07T15:04:09;8.20;;;2.50;;
62951;SDS011;52163;52.212;-1.002;2022-12-07T15:06:34;7.80;;;2.60;;
62951;SDS011;52163;52.212;-1.002;2022-12-07T15:09:00;5.40;;;2.60;;
62951;SDS011;52163;52.212;-1.002;2022-12-07T15:11:25;7.40;;;2.60;;
62951;SDS011;52163;52.212;-1.002;2022-12-07T15:13:51;6.10;;;2.90;;
62951;SDS011;52163;52.212;-1.002;2022-12-07T15:16:36;9.50;;;4.50;;
62951;SDS011;52163;52.212;-1.002;2022-12-07T15:19:05;11.00;;;4.50;;
62951;SDS011;52163;52.212;-1.002;2022-12-07T15:21:34;9.80;;;4.50;;
62951;SDS011;52163;52.212;-1.002;2022-12-07T15:24:00;8.80;;;3.90;;
62951;SDS011;52163;52.212;-1.002;2022-12-07T15:26:25;10.10;;;3.90;;
62951;SDS011;52163;52.212;-1.002;2022-12-07T15:28:52;12.90;;;4.70;;
62951;SDS011;52163;52.212;-1.002;2022-12-07T15:31:19;7.70;;;3.80;;
62951;SDS011;52163;52.212;-1.002;2022-12-07T15:33:44;9.70;;;4.90;;
62951;SDS011;52163;52.212;-1.002;2022-12-07T15:36:15;9.20;;;5.00;;
62951;SDS011;52163;52.212;-1.002;2022-12-07T15:38:48;8.60;;;5.30;;
62951;SDS011;52163;52.212;-1.002;2022-12-07T15:41:14;13.20;;;6.20;;
62951;SDS011;52163;52.212;-1.002;2022-12-07T15:43:39;12.10;;;7.60;;
62951;SDS011;52163;52.212;-1.002;2022-12-07T15:46:28;12.70;;;7.20;;
62951;SDS011;52163;52.212;-1.002;2022-12-07T15:48:55;12.60;;;6.30;;
62951;SDS011;52163;52.212;-1.002;2022-12-07T15:51:21;12.50;;;6.60;;
62951;SDS011;52163;52.212;-1.002;2022-12-07T15:53:46;10.20;;;6.00;;
62951;SDS011;52163;52.212;-1.002;2022-12-07T15:56:11;12.20;;;6.50;;
62951;SDS011;52163;52.212;-1.002;2022-12-07T15:58:37;13.90;;;7.00;;
62951;SDS011;52163;52.212;-1.002;2022-12-07T16:01:12;12.30;;;6.50;;
62951;SDS011;52163;52.212;-1.002;2022-12-07T16:03:38;13.20;;;6.60;;
62951;SDS011;52163;52.212;-1.002;2022-12-07T16:06:04;12.50;;;6.30;;
62951;SDS011;52163;52.212;-1.002;2022-12-07T16:08:30;17.50;;;8.80;;
62951;SDS011;52163;52.212;-1.002;2022-12-07T16:10:55;19.80;;;9.70;;
62951;SDS011;52163;52.212;-1.002;2022-12-07T16:13:21;24.70;;;10.20;;
62951;SDS011;52163;52.212;-1.002;2022-12-07T16:15:46;16.50;;;8.00;;
62951;SDS011;52163;52.212;-1.002;2022-12-07T16:18:12;15.70;;;7.70;;
62951;SDS011;52163;52.212;-1.002;2022-12-07T16:20:37;15.20;;;8.60;;
62951;SDS011;52163;52.212;-1.002;2022-12-07T16:23:03;12.10;;;7.70;;
62951;SDS011;52163;52.212;-1.002;2022-12-07T16:25:28;15.70;;;7.70;;
62951;SDS011;52163;52.212;-1.002;2022-12-07T16:27:54;14.80;;;8.00;;
62951;SDS011;52163;52.212;-1.002;2022-12-07T16:30:20;12.10;;;7.60;;
62951;SDS011;52163;52.212;-1.002;2022-12-07T16:32:45;15.30;;;7.90;;
62951;SDS011;52163;52.212;-1.002;2022-12-07T16:35:11;16.80;;;9.80;;
62951;SDS011;52163;52.212;-1.002;2022-12-07T16:37:37;21.70;;;10.40;;
62951;SDS011;52163;52.212;-1.002;2022-12-07T16:40:04;16.40;;;9.20;;
62951;SDS011;52163;52.212;-1.002;2022-12-07T16:42:33;15.90;;;9.50;;
62951;SDS011;52163;52.212;-1.002;2022-12-07T16:45:00;14.50;;;7.60;;
62951;SDS011;52163;52.212;-1.002;2022-12-07T16:47:25;14.10;;;7.30;;
62951;SDS011;52163;52.212;-1.002;2022-12-07T16:49:51;14.20;;;7.10;;
62951;SDS011;52163;52.212;-1.002;2022-12-07T16:52:17;12.00;;;7.20;;
62951;SDS011;52163;52.212;-1.002;2022-12-07T16:54:43;21.40;;;9.80;;
62951;SDS011;52163;52.212;-1.002;2022-12-07T16:57:09;24.00;;;13.50;;